sensor_id;sensor_type;location;lat;lon;timestamp;P1;durP1;ratioP1;P2;durP2;ratioP2
24435;SDS011;12616;52.470;13.436;2023-04-15T00:02:04;44.60;;;27.30;;
24435;SDS011;12616;52.470;13.436;2023-04-15T00:04:39;42.27;;;28.00;;
24435;SDS011;12616;52.470;13.436;2023-04-15T00:07:06;52.10;;;30.10;;
24435;SDS011;12616;52.470;13.436;2023-04-15T00:09:34;46.30;;;29.40;;
24435;SDS011;12616;52.470;13.436;2023-04-15T00:12:00;44.10;;;28.30;;
24435;SDS011;12616;52.470;13.436;2023-04-15T00:14:29;45.30;;;29.70;;
24435;SDS011;12616;52.470;13.436;2023-04-15T00:16:56;43.83;;;27.90;;
24435;SDS011;12616;52.470;13.436;2023-04-15T00:19:23;44.23;;;27.87;;
24435;SDS011;12616;52.470;13.436;2023-04-15T00:21:49;40.60;;;27.47;;
24435;SDS011;12616;52.470;13.436;2023-04-15T00:24:16;49.03;;;30.27;;
24435;SDS011;12616;52.470;13.436;2023-04-15T00:26:43;48.50;;;27.10;;
24435;SDS011;12616;52.470;13.436;2023-04-15T00:29:10;43.63;;;28.33;;
24435;SDS011;12616;52.470;13.436;2023-04-15T00:31:38;44.80;;;28.93;;
24435;SDS011;12616;52.470;13.436;2023-04-15T00:34:05;46.03;;;29.10;;
24435;SDS011;12616;52.470;13.436;2023-04-15T00:36:32;49.77;;;30.53;;
24435;SDS011;12616;52.470;13.436;2023-04-15T00:38:59;49.40;;;30.70;;
24435;SDS011;12616;52.470;13.436;2023-04-15T00:41:27;54.70;;;31.77;;
24435;SDS011;12616;52.470;13.436;2023-04-15T00:43:54;55.67;;;32.07;;
24435;SDS011;12616;52.470;13.436;2023-04-15T00:46:20;51.13;;;30.47;;
24435;SDS011;12616;52.470;13.436;2023-04-15T00:48:50;51.90;;;31.30;;
24435;SDS011;12616;52.470;13.436;2023-04-15T00:51:17;54.67;;;33.20;;
24435;SDS011;12616;52.470;13.436;2023-04-15T00:53:44;48.60;;;31.33;;
24435;SDS011;12616;52.470;13.436;2023-04-15T00:56:10;51.27;;;32.50;;
24435;SDS011;12616;52.470;13.436;2023-04-15T00:58:38;49.97;;;31.20;;
24435;SDS011;12616;52.470;13.436;2023-04-15T01:01:05;50.73;;;30.20;;
24435;SDS011;12616;52.470;13.436;2023-04-15T01:03:32;54.63;;;33.17;;
24435;SDS011;12616;52.470;13.436;2023-04-15T01:06:01;52.33;;;31.63;;
24435;SDS011;12616;52.470;13.436;2023-04-15T01:08:28;52.00;;;29.83;;
24435;SDS011;12616;52.470;13.436;2023-04-15T01:10:56;57.13;;;33.40;;
24435;SDS011;12616;52.470;13.436;2023-04-15T01:13:24;48.67;;;29.83;;
24435;SDS011;12616;52.470;13.436;2023-04-15T01:15:51;51.00;;;32.23;;
24435;SDS011;12616;52.470;13.436;2023-04-15T01:18:18;53.60;;;32.00;;
24435;SDS011;12616;52.470;13.436;2023-04-15T01:20:45;52.30;;;31.77;;
24435;SDS011;12616;52.470;13.436;2023-04-15T01:23:14;52.97;;;31.17;;
24435;SDS011;12616;52.470;13.436;2023-04-15T01:25:43;50.00;;;31.23;;
24435;SDS011;12616;52.470;13.436;2023-04-15T01:28:11;60.50;;;33.67;;
24435;SDS011;12616;52.470;13.436;2023-04-15T01:30:38;52.90;;;30.80;;
24435;SDS011;12616;52.470;13.436;2023-04-15T01:33:05;54.13;;;32.10;;
24435;SDS011;12616;52.470;13.436;2023-04-15T01:35:32;54.23;;;32.90;;
24435;SDS011;12616;52.470;13.436;2023-04-15T01:38:00;56.40;;;32.90;;
24435;SDS011;12616;52.470;13.436;2023-04-15T01:40:31;58.37;;;33.03;;
24435;SDS011;12616;52.470;13.436;2023-04-15T01:42:59;64.47;;;34.10;;
24435;SDS011;12616;52.470;13.436;2023-04-15T01:45:26;58.77;;;32.73;;
24435;SDS011;12616;52.470;13.436;2023-04-15T01:47:54;51.03;;;32.03;;
24435;SDS011;12616;52.470;13.436;2023-04-15T01:50:21;54.47;;;33.60;;
24435;SDS011;12616;52.470;13.436;2023-04-15T01:52:48;60.07;;;33.50;;
24435;SDS011;12616;52.470;13.436;2023-04-15T01:55:15;61.93;;;33.37;;
24435;SDS011;12616;52.470;13.436;2023-04-15T01:57:42;59.10;;;34.50;;
24435;SDS011;12616;52.470;13.436;2023-04-15T02:00:11;55.80;;;32.20;;
24435;SDS011;12616;52.470;13.436;2023-04-15T02:02:38;58.87;;;32.50;;
24435;SDS011;12616;52.470;13.436;2023-04-15T02:05:05;62.40;;;35.40;;
24435;SDS011;12616;52.470;13.436;2023-04-15T02:07:32;57.03;;;31.87;;
24435;SDS011;12616;52.470;13.436;2023-04-15T02:09:59;56.13;;;32.80;;
24435;SDS011;12616;52.470;13.436;2023-04-15T02:12:26;55.73;;;32.97;;
24435;SDS011;12616;52.470;13.436;2023-04-15T02:14:53;62.47;;;33.87;;
24435;SDS011;12616;52.470;13.436;2023-04-15T02:17:22;57.87;;;32.47;;
24435;SDS011;12616;52.470;13.436;2023-04-15T02:19:48;52.40;;;32.10;;
24435;SDS011;12616;52.470;13.436;2023-04-15T02:22:15;54.33;;;32.37;;
24435;SDS011;12616;52.470;13.436;2023-04-15T02:24:43;53.77;;;29.97;;
24435;SDS011;12616;52.470;13.436;2023-04-15T02:27:14;55.23;;;32.30;;
24435;SDS011;12616;52.470;13.436;2023-04-15T02:29:42;56.20;;;32.03;;
24435;SDS011;12616;52.470;13.436;2023-04-15T02:32:09;58.80;;;33.90;;
24435;SDS011;12616;52.470;13.436;2023-04-15T02:34:38;55.27;;;30.87;;
24435;SDS011;12616;52.470;13.436;2023-04-15T02:37:06;52.87;;;32.27;;
24435;SDS011;12616;52.470;13.436;2023-04-15T02:39:33;54.47;;;30.93;;
24435;SDS011;12616;52.470;13.436;2023-04-15T02:42:00;57.67;;;31.87;;
24435;SDS011;12616;52.470;13.436;2023-04-15T02:44:27;60.30;;;34.30;;
24435;SDS011;12616;52.470;13.436;2023-04-15T02:46:55;58.80;;;31.70;;
24435;SDS011;12616;52.470;13.436;2023-04-15T02:49:22;57.50;;;32.90;;
24435;SDS011;12616;52.470;13.436;2023-04-15T02:51:50;55.97;;;31.17;;
24435;SDS011;12616;52.470;13.436;2023-04-15T02:54:18;51.40;;;33.77;;
24435;SDS011;12616;52.470;13.436;2023-04-15T02:56:46;53.90;;;32.30;;
24435;SDS011;12616;52.470;13.436;2023-04-15T02:59:14;54.00;;;32.53;;
24435;SDS011;12616;52.470;13.436;2023-04-15T03:01:40;58.47;;;31.97;;
24435;SDS011;12616;52.470;13.436;2023-04-15T03:04:07;53.27;;;32.20;;
24435;SDS011;12616;52.470;13.436;2023-04-15T03:06:34;48.80;;;30.37;;
24435;SDS011;12616;52.470;13.436;2023-04-15T03:09:03;55.50;;;30.90;;
24435;SDS011;12616;52.470;13.436;2023-04-15T03:11:29;57.23;;;32.20;;
24435;SDS011;12616;52.470;13.436;2023-04-15T03:13:57;68.17;;;31.97;;
24435;SDS011;12616;52.470;13.436;2023-04-15T03:16:24;48.80;;;29.83;;
24435;SDS011;12616;52.470;13.436;2023-04-15T03:18:51;56.47;;;31.17;;
24435;SDS011;12616;52.470;13.436;2023-04-15T03:21:18;53.30;;;30.13;;
24435;SDS011;12616;52.470;13.436;2023-04-15T03:23:45;52.97;;;31.57;;
24435;SDS011;12616;52.470;13.436;2023-04-15T03:26:24;48.00;;;27.93;;
24435;SDS011;12616;52.470;13.436;2023-04-15T03:28:52;48.97;;;30.00;;
24435;SDS011;12616;52.470;13.436;2023-04-15T03:31:19;48.87;;;29.10;;
24435;SDS011;12616;52.470;13.436;2023-04-15T03:33:46;59.90;;;30.37;;
24435;SDS011;12616;52.470;13.436;2023-04-15T03:36:13;49.93;;;30.47;;
24435;SDS011;12616;52.470;13.436;2023-04-15T03:38:40;50.77;;;31.53;;
24435;SDS011;12616;52.470;13.436;2023-04-15T03:41:07;47.37;;;28.00;;
24435;SDS011;12616;52.470;13.436;2023-04-15T03:43:35;50.40;;;28.93;;
24435;SDS011;12616;52.470;13.436;2023-04-15T03:46:02;49.77;;;31.27;;
24435;SDS011;12616;52.470;13.436;2023-04-15T03:48:29;46.13;;;29.30;;
24435;SDS011;12616;52.470;13.436;2023-04-15T03:50:56;53.07;;;29.67;;
24435;SDS011;12616;52.470;13.436;2023-04-15T03:53:23;45.10;;;29.93;;
24435;SDS011;12616;52.470;13.436;2023-04-15T03:55:50;47.80;;;29.97;;
24435;SDS011;12616;52.470;13.436;2023-04-15T03:58:17;50.63;;;31.73;;
24435;SDS011;12616;52.470;13.436;2023-04-15T04:00:45;45.80;;;28.30;;
24435;SDS011;12616;52.470;13.436;2023-04-15T04:03:11;41.60;;;26.63;;
24435;SDS011;12616;52.470;13.436;2023-04-15T04:05:38;41.60;;;26.50;;
24435;SDS011;12616;52.470;13.436;2023-04-15T04:08:06;41.60;;;27.20;;
24435;SDS011;12616;52.470;13.436;2023-04-15T04:10:33;40.77;;;26.60;;
24435;SDS011;12616;52.470;13.436;2023-04-15T04:13:00;41.83;;;25.77;;
24435;SDS011;12616;52.470;13.436;2023-04-15T04:15:27;47.67;;;26.37;;
24435;SDS011;12616;52.470;13.436;2023-04-15T04:17:57;39.20;;;27.30;;
24435;SDS011;12616;52.470;13.436;2023-04-15T04:20:24;46.20;;;29.37;;
24435;SDS011;12616;52.470;13.436;2023-04-15T04:22:50;44.60;;;27.27;;
24435;SDS011;12616;52.470;13.436;2023-04-15T04:25:17;44.07;;;28.80;;
24435;SDS011;12616;52.470;13.436;2023-04-15T04:27:44;34.60;;;24.60;;
24435;SDS011;12616;52.470;13.436;2023-04-15T04:30:11;40.80;;;26.43;;
24435;SDS011;12616;52.470;13.436;2023-04-15T04:32:38;42.57;;;28.37;;
24435;SDS011;12616;52.470;13.436;2023-04-15T04:35:07;41.03;;;26.43;;
24435;SDS011;12616;52.470;13.436;2023-04-15T04:37:34;43.90;;;25.97;;
24435;SDS011;12616;52.470;13.436;2023-04-15T04:40:01;33.70;;;23.83;;
24435;SDS011;12616;52.470;13.436;2023-04-15T04:42:28;35.23;;;22.80;;
24435;SDS011;12616;52.470;13.436;2023-04-15T04:44:55;37.87;;;26.17;;
24435;SDS011;12616;52.470;13.436;2023-04-15T04:47:22;38.90;;;25.47;;
24435;SDS011;12616;52.470;13.436;2023-04-15T04:49:49;35.03;;;24.27;;
24435;SDS011;12616;52.470;13.436;2023-04-15T04:52:17;32.97;;;23.03;;
24435;SDS011;12616;52.470;13.436;2023-04-15T04:54:44;33.73;;;23.20;;
24435;SDS011;12616;52.470;13.436;2023-04-15T04:57:11;36.77;;;23.97;;
24435;SDS011;12616;52.470;13.436;2023-04-15T04:59:38;29.40;;;20.70;;
24435;SDS011;12616;52.470;13.436;2023-04-15T05:02:05;32.40;;;22.40;;
24435;SDS011;12616;52.470;13.436;2023-04-15T05:04:32;29.33;;;23.00;;
24435;SDS011;12616;52.470;13.436;2023-04-15T05:06:59;32.90;;;22.50;;
24435;SDS011;12616;52.470;13.436;2023-04-15T05:09:27;28.47;;;20.63;;
24435;SDS011;12616;52.470;13.436;2023-04-15T05:11:56;25.97;;;20.07;;
24435;SDS011;12616;52.470;13.436;2023-04-15T05:14:23;28.23;;;20.90;;
24435;SDS011;12616;52.470;13.436;2023-04-15T05:16:50;28.97;;;21.17;;
24435;SDS011;12616;52.470;13.436;2023-04-15T05:19:17;28.67;;;21.50;;
24435;SDS011;12616;52.470;13.436;2023-04-15T05:21:44;32.53;;;21.50;;
24435;SDS011;12616;52.470;13.436;2023-04-15T05:24:11;26.93;;;19.37;;
24435;SDS011;12616;52.470;13.436;2023-04-15T05:26:39;26.70;;;20.23;;
24435;SDS011;12616;52.470;13.436;2023-04-15T05:29:06;28.77;;;19.97;;
24435;SDS011;12616;52.470;13.436;2023-04-15T05:31:32;30.10;;;20.57;;
24435;SDS011;12616;52.470;13.436;2023-04-15T05:33:59;27.50;;;19.10;;
24435;SDS011;12616;52.470;13.436;2023-04-15T05:36:26;27.50;;;18.77;;
24435;SDS011;12616;52.470;13.436;2023-04-15T05:38:53;27.63;;;19.87;;
24435;SDS011;12616;52.470;13.436;2023-04-15T05:41:20;24.93;;;18.57;;
24435;SDS011;12616;52.470;13.436;2023-04-15T05:43:48;22.60;;;18.00;;
24435;SDS011;12616;52.470;13.436;2023-04-15T05:46:15;21.17;;;17.73;;
24435;SDS011;12616;52.470;13.436;2023-04-15T05:48:42;22.37;;;18.40;;
24435;SDS011;12616;52.470;13.436;2023-04-15T05:51:09;25.90;;;18.47;;
24435;SDS011;12616;52.470;13.436;2023-04-15T05:53:36;22.53;;;18.00;;
24435;SDS011;12616;52.470;13.436;2023-04-15T05:56:03;22.10;;;18.63;;
24435;SDS011;12616;52.470;13.436;2023-04-15T05:58:30;22.80;;;16.43;;
24435;SDS011;12616;52.470;13.436;2023-04-15T06:00:58;21.40;;;17.13;;
24435;SDS011;12616;52.470;13.436;2023-04-15T06:03:25;24.43;;;16.40;;
24435;SDS011;12616;52.470;13.436;2023-04-15T06:05:52;21.57;;;16.40;;
24435;SDS011;12616;52.470;13.436;2023-04-15T06:08:19;20.17;;;15.70;;
24435;SDS011;12616;52.470;13.436;2023-04-15T06:10:46;16.93;;;15.23;;
24435;SDS011;12616;52.470;13.436;2023-04-15T06:13:13;20.53;;;15.73;;
24435;SDS011;12616;52.470;13.436;2023-04-15T06:15:41;23.00;;;16.10;;
24435;SDS011;12616;52.470;13.436;2023-04-15T06:18:09;22.73;;;16.17;;
24435;SDS011;12616;52.470;13.436;2023-04-15T06:20:37;18.70;;;14.50;;
24435;SDS011;12616;52.470;13.436;2023-04-15T06:23:04;18.03;;;15.27;;
24435;SDS011;12616;52.470;13.436;2023-04-15T06:25:30;19.10;;;14.83;;
24435;SDS011;12616;52.470;13.436;2023-04-15T06:27:57;18.87;;;15.17;;
24435;SDS011;12616;52.470;13.436;2023-04-15T06:30:24;21.00;;;15.10;;
24435;SDS011;12616;52.470;13.436;2023-04-15T06:32:51;17.90;;;14.40;;
24435;SDS011;12616;52.470;13.436;2023-04-15T06:35:20;16.03;;;13.27;;
24435;SDS011;12616;52.470;13.436;2023-04-15T06:37:47;20.43;;;14.70;;
24435;SDS011;12616;52.470;13.436;2023-04-15T06:40:14;17.63;;;14.30;;
24435;SDS011;12616;52.470;13.436;2023-04-15T06:42:41;17.40;;;14.83;;
24435;SDS011;12616;52.470;13.436;2023-04-15T06:45:08;16.40;;;14.23;;
24435;SDS011;12616;52.470;13.436;2023-04-15T06:47:35;17.43;;;13.90;;
24435;SDS011;12616;52.470;13.436;2023-04-15T06:50:02;14.80;;;13.30;;
24435;SDS011;12616;52.470;13.436;2023-04-15T06:52:31;14.47;;;12.97;;
24435;SDS011;12616;52.470;13.436;2023-04-15T06:54:58;19.10;;;14.30;;
24435;SDS011;12616;52.470;13.436;2023-04-15T06:57:25;20.40;;;16.03;;
24435;SDS011;12616;52.470;13.436;2023-04-15T06:59:52;17.90;;;13.97;;
24435;SDS011;12616;52.470;13.436;2023-04-15T07:02:19;16.53;;;13.63;;
24435;SDS011;12616;52.470;13.436;2023-04-15T07:04:46;17.23;;;14.33;;
24435;SDS011;12616;52.470;13.436;2023-04-15T07:07:13;17.40;;;15.67;;
24435;SDS011;12616;52.470;13.436;2023-04-15T07:09:42;17.77;;;13.73;;
24435;SDS011;12616;52.470;13.436;2023-04-15T07:12:09;16.63;;;14.17;;
24435;SDS011;12616;52.470;13.436;2023-04-15T07:14:36;17.60;;;13.97;;
24435;SDS011;12616;52.470;13.436;2023-04-15T07:17:03;17.43;;;13.80;;
24435;SDS011;12616;52.470;13.436;2023-04-15T07:19:30;17.30;;;14.00;;
24435;SDS011;12616;52.470;13.436;2023-04-15T07:21:57;15.07;;;12.30;;
24435;SDS011;12616;52.470;13.436;2023-04-15T07:24:24;19.17;;;14.37;;
24435;SDS011;12616;52.470;13.436;2023-04-15T07:26:53;14.43;;;13.03;;
24435;SDS011;12616;52.470;13.436;2023-04-15T07:29:20;17.07;;;12.63;;
24435;SDS011;12616;52.470;13.436;2023-04-15T07:31:47;17.87;;;14.10;;
24435;SDS011;12616;52.470;13.436;2023-04-15T07:34:14;16.40;;;14.13;;
24435;SDS011;12616;52.470;13.436;2023-04-15T07:36:41;17.80;;;14.60;;
24435;SDS011;12616;52.470;13.436;2023-04-15T07:39:07;14.73;;;13.13;;
24435;SDS011;12616;52.470;13.436;2023-04-15T07:41:35;17.97;;;14.40;;
24435;SDS011;12616;52.470;13.436;2023-04-15T07:44:03;16.77;;;14.17;;
24435;SDS011;12616;52.470;13.436;2023-04-15T07:46:30;17.17;;;14.43;;
24435;SDS011;12616;52.470;13.436;2023-04-15T07:48:57;16.83;;;13.53;;
24435;SDS011;12616;52.470;13.436;2023-04-15T07:51:24;15.90;;;14.20;;
24435;SDS011;12616;52.470;13.436;2023-04-15T07:53:51;16.13;;;14.37;;
24435;SDS011;12616;52.470;13.436;2023-04-15T07:56:19;17.03;;;14.40;;
24435;SDS011;12616;52.470;13.436;2023-04-15T07:58:46;18.30;;;14.67;;
24435;SDS011;12616;52.470;13.436;2023-04-15T08:01:14;18.57;;;15.63;;
24435;SDS011;12616;52.470;13.436;2023-04-15T08:03:41;17.07;;;13.70;;
24435;SDS011;12616;52.470;13.436;2023-04-15T08:06:08;19.67;;;16.20;;
24435;SDS011;12616;52.470;13.436;2023-04-15T08:08:34;14.73;;;13.20;;
24435;SDS011;12616;52.470;13.436;2023-04-15T08:11:01;16.37;;;14.77;;
24435;SDS011;12616;52.470;13.436;2023-04-15T08:13:28;20.03;;;14.97;;
24435;SDS011;12616;52.470;13.436;2023-04-15T08:18:40;18.70;;;15.33;;
24435;SDS011;12616;52.470;13.436;2023-04-15T08:21:07;17.80;;;14.77;;
24435;SDS011;12616;52.470;13.436;2023-04-15T08:23:34;18.67;;;14.83;;
24435;SDS011;12616;52.470;13.436;2023-04-15T08:26:01;17.30;;;15.50;;
24435;SDS011;12616;52.470;13.436;2023-04-15T08:28:28;21.27;;;16.70;;
24435;SDS011;12616;52.470;13.436;2023-04-15T08:30:55;18.00;;;16.07;;
24435;SDS011;12616;52.470;13.436;2023-04-15T08:33:22;17.77;;;15.97;;
24435;SDS011;12616;52.470;13.436;2023-04-15T08:35:50;17.30;;;15.50;;
24435;SDS011;12616;52.470;13.436;2023-04-15T08:38:17;17.10;;;15.30;;
24435;SDS011;12616;52.470;13.436;2023-04-15T08:40:44;16.90;;;15.10;;
24435;SDS011;12616;52.470;13.436;2023-04-15T08:43:12;18.53;;;16.33;;
24435;SDS011;12616;52.470;13.436;2023-04-15T08:45:43;20.70;;;17.47;;
24435;SDS011;12616;52.470;13.436;2023-04-15T08:48:13;19.70;;;15.80;;
24435;SDS011;12616;52.470;13.436;2023-04-15T08:50:40;18.87;;;16.87;;
24435;SDS011;12616;52.470;13.436;2023-04-15T08:53:09;21.27;;;18.33;;
24435;SDS011;12616;52.470;13.436;2023-04-15T08:55:38;20.40;;;17.10;;
24435;SDS011;12616;52.470;13.436;2023-04-15T08:58:09;18.53;;;16.73;;
24435;SDS011;12616;52.470;13.436;2023-04-15T09:00:36;20.93;;;16.27;;
24435;SDS011;12616;52.470;13.436;2023-04-15T09:03:03;21.30;;;18.67;;
24435;SDS011;12616;52.470;13.436;2023-04-15T09:05:31;18.93;;;16.87;;
24435;SDS011;12616;52.470;13.436;2023-04-15T09:07:58;22.07;;;17.57;;
24435;SDS011;12616;52.470;13.436;2023-04-15T09:10:27;20.77;;;16.37;;
24435;SDS011;12616;52.470;13.436;2023-04-15T09:12:55;22.37;;;18.67;;
24435;SDS011;12616;52.470;13.436;2023-04-15T09:15:22;20.13;;;17.70;;
24435;SDS011;12616;52.470;13.436;2023-04-15T09:17:51;22.00;;;18.10;;
24435;SDS011;12616;52.470;13.436;2023-04-15T09:20:18;18.20;;;16.33;;
24435;SDS011;12616;52.470;13.436;2023-04-15T09:22:46;24.17;;;18.70;;
24435;SDS011;12616;52.470;13.436;2023-04-15T09:25:24;23.03;;;17.07;;
24435;SDS011;12616;52.470;13.436;2023-04-15T09:27:54;19.17;;;16.67;;
24435;SDS011;12616;52.470;13.436;2023-04-15T09:30:21;24.30;;;20.70;;
24435;SDS011;12616;52.470;13.436;2023-04-15T09:32:49;19.17;;;16.83;;
24435;SDS011;12616;52.470;13.436;2023-04-15T09:35:16;19.90;;;17.80;;
24435;SDS011;12616;52.470;13.436;2023-04-15T09:37:43;21.93;;;19.50;;
24435;SDS011;12616;52.470;13.436;2023-04-15T09:40:10;18.90;;;16.60;;
24435;SDS011;12616;52.470;13.436;2023-04-15T09:42:45;27.20;;;21.77;;
24435;SDS011;12616;52.470;13.436;2023-04-15T09:45:21;20.33;;;17.27;;
24435;SDS011;12616;52.470;13.436;2023-04-15T09:47:49;16.77;;;14.90;;
24435;SDS011;12616;52.470;13.436;2023-04-15T09:50:17;18.47;;;16.50;;
24435;SDS011;12616;52.470;13.436;2023-04-15T09:52:45;19.00;;;16.00;;
24435;SDS011;12616;52.470;13.436;2023-04-15T09:55:12;18.63;;;16.17;;
24435;SDS011;12616;52.470;13.436;2023-04-15T09:57:40;19.43;;;17.43;;
24435;SDS011;12616;52.470;13.436;2023-04-15T10:00:10;18.30;;;16.40;;
24435;SDS011;12616;52.470;13.436;2023-04-15T10:02:38;21.70;;;17.87;;
24435;SDS011;12616;52.470;13.436;2023-04-15T10:05:07;19.83;;;16.23;;
24435;SDS011;12616;52.470;13.436;2023-04-15T10:07:37;18.60;;;16.70;;
24435;SDS011;12616;52.470;13.436;2023-04-15T10:10:05;20.90;;;17.03;;
24435;SDS011;12616;52.470;13.436;2023-04-15T10:12:33;19.60;;;17.60;;
24435;SDS011;12616;52.470;13.436;2023-04-15T10:15:03;19.87;;;16.83;;
24435;SDS011;12616;52.470;13.436;2023-04-15T10:17:32;18.80;;;16.20;;
24435;SDS011;12616;52.470;13.436;2023-04-15T10:20:01;24.93;;;18.70;;
24435;SDS011;12616;52.470;13.436;2023-04-15T10:22:29;20.00;;;16.97;;
24435;SDS011;12616;52.470;13.436;2023-04-15T10:24:57;22.83;;;19.60;;
24435;SDS011;12616;52.470;13.436;2023-04-15T10:27:25;29.63;;;23.23;;
24435;SDS011;12616;52.470;13.436;2023-04-15T10:29:52;19.60;;;17.03;;
24435;SDS011;12616;52.470;13.436;2023-04-15T10:32:20;20.83;;;17.80;;
24435;SDS011;12616;52.470;13.436;2023-04-15T10:34:50;21.13;;;17.47;;
24435;SDS011;12616;52.470;13.436;2023-04-15T10:37:19;18.73;;;16.83;;
24435;SDS011;12616;52.470;13.436;2023-04-15T10:39:46;24.93;;;20.90;;
24435;SDS011;12616;52.470;13.436;2023-04-15T10:42:14;20.87;;;17.07;;
24435;SDS011;12616;52.470;13.436;2023-04-15T10:44:42;21.33;;;16.87;;
24435;SDS011;12616;52.470;13.436;2023-04-15T10:47:11;15.97;;;14.37;;
24435;SDS011;12616;52.470;13.436;2023-04-15T10:49:43;19.70;;;17.73;;
24435;SDS011;12616;52.470;13.436;2023-04-15T10:52:12;19.30;;;16.70;;
24435;SDS011;12616;52.470;13.436;2023-04-15T10:54:41;20.10;;;15.90;;
24435;SDS011;12616;52.470;13.436;2023-04-15T10:57:08;19.67;;;15.97;;
24435;SDS011;12616;52.470;13.436;2023-04-15T11:02:37;20.63;;;18.50;;
24435;SDS011;12616;52.470;13.436;2023-04-15T11:05:08;17.13;;;15.17;;
24435;SDS011;12616;52.470;13.436;2023-04-15T11:07:37;17.20;;;15.50;;
24435;SDS011;12616;52.470;13.436;2023-04-15T11:13:20;19.60;;;16.00;;
24435;SDS011;12616;52.470;13.436;2023-04-15T11:16:00;19.67;;;16.83;;
24435;SDS011;12616;52.470;13.436;2023-04-15T11:18:28;18.63;;;16.70;;
24435;SDS011;12616;52.470;13.436;2023-04-15T11:20:57;16.67;;;14.97;;
24435;SDS011;12616;52.470;13.436;2023-04-15T11:23:28;18.10;;;16.30;;
24435;SDS011;12616;52.470;13.436;2023-04-15T11:25:56;17.03;;;15.23;;
24435;SDS011;12616;52.470;13.436;2023-04-15T11:28:25;18.03;;;15.57;;
24435;SDS011;12616;52.470;13.436;2023-04-15T11:30:53;19.90;;;16.50;;
24435;SDS011;12616;52.470;13.436;2023-04-15T11:33:20;20.13;;;16.83;;
24435;SDS011;12616;52.470;13.436;2023-04-15T11:35:48;17.93;;;16.10;;
24435;SDS011;12616;52.470;13.436;2023-04-15T11:38:15;18.40;;;16.47;;
24435;SDS011;12616;52.470;13.436;2023-04-15T11:40:44;16.83;;;15.13;;
24435;SDS011;12616;52.470;13.436;2023-04-15T11:43:12;18.27;;;16.40;;
24435;SDS011;12616;52.470;13.436;2023-04-15T11:45:47;18.83;;;16.40;;
24435;SDS011;12616;52.470;13.436;2023-04-15T11:48:15;20.47;;;16.93;;
24435;SDS011;12616;52.470;13.436;2023-04-15T11:50:51;18.80;;;16.90;;
24435;SDS011;12616;52.470;13.436;2023-04-15T11:53:19;18.50;;;16.70;;
24435;SDS011;12616;52.470;13.436;2023-04-15T11:55:50;19.47;;;16.90;;
24435;SDS011;12616;52.470;13.436;2023-04-15T11:58:19;16.63;;;14.90;;
24435;SDS011;12616;52.470;13.436;2023-04-15T12:00:48;17.13;;;15.30;;
24435;SDS011;12616;52.470;13.436;2023-04-15T12:03:17;19.73;;;16.60;;
24435;SDS011;12616;52.470;13.436;2023-04-15T12:06:05;18.07;;;16.17;;
24435;SDS011;12616;52.470;13.436;2023-04-15T12:11:29;18.27;;;14.80;;
24435;SDS011;12616;52.470;13.436;2023-04-15T12:14:08;15.90;;;14.03;;
24435;SDS011;12616;52.470;13.436;2023-04-15T12:16:39;17.53;;;15.17;;
24435;SDS011;12616;52.470;13.436;2023-04-15T12:19:11;20.00;;;17.87;;
24435;SDS011;12616;52.470;13.436;2023-04-15T12:21:39;17.23;;;15.43;;
24435;SDS011;12616;52.470;13.436;2023-04-15T12:24:08;16.00;;;14.40;;
24435;SDS011;12616;52.470;13.436;2023-04-15T12:26:42;16.97;;;14.80;;
24435;SDS011;12616;52.470;13.436;2023-04-15T12:29:10;19.47;;;15.33;;
24435;SDS011;12616;52.470;13.436;2023-04-15T12:31:45;17.20;;;14.70;;
24435;SDS011;12616;52.470;13.436;2023-04-15T12:34:14;16.50;;;14.90;;
24435;SDS011;12616;52.470;13.436;2023-04-15T12:36:41;17.97;;;16.07;;
24435;SDS011;12616;52.470;13.436;2023-04-15T12:39:08;15.70;;;14.13;;
24435;SDS011;12616;52.470;13.436;2023-04-15T12:41:35;17.30;;;15.50;;
24435;SDS011;12616;52.470;13.436;2023-04-15T12:44:03;15.93;;;14.07;;
24435;SDS011;12616;52.470;13.436;2023-04-15T12:46:30;17.03;;;15.37;;
24435;SDS011;12616;52.470;13.436;2023-04-15T12:48:57;16.27;;;14.57;;
24435;SDS011;12616;52.470;13.436;2023-04-15T12:51:24;17.67;;;13.67;;
24435;SDS011;12616;52.470;13.436;2023-04-15T12:53:52;14.73;;;13.23;;
24435;SDS011;12616;52.470;13.436;2023-04-15T12:56:19;16.40;;;14.37;;
24435;SDS011;12616;52.470;13.436;2023-04-15T12:58:46;14.20;;;12.80;;
24435;SDS011;12616;52.470;13.436;2023-04-15T13:01:14;14.97;;;13.37;;
24435;SDS011;12616;52.470;13.436;2023-04-15T13:03:41;14.67;;;13.30;;
24435;SDS011;12616;52.470;13.436;2023-04-15T13:06:08;13.80;;;12.40;;
24435;SDS011;12616;52.470;13.436;2023-04-15T13:08:36;18.07;;;15.93;;
24435;SDS011;12616;52.470;13.436;2023-04-15T13:11:03;12.27;;;11.13;;
24435;SDS011;12616;52.470;13.436;2023-04-15T13:13:31;10.83;;;9.90;;
24435;SDS011;12616;52.470;13.436;2023-04-15T13:15:58;11.73;;;10.63;;
24435;SDS011;12616;52.470;13.436;2023-04-15T13:18:26;10.83;;;9.73;;
24435;SDS011;12616;52.470;13.436;2023-04-15T13:20:55;12.30;;;11.10;;
24435;SDS011;12616;52.470;13.436;2023-04-15T13:23:22;11.00;;;9.93;;
24435;SDS011;12616;52.470;13.436;2023-04-15T13:25:48;9.57;;;8.73;;
24435;SDS011;12616;52.470;13.436;2023-04-15T13:28:16;14.40;;;10.10;;
24435;SDS011;12616;52.470;13.436;2023-04-15T13:30:43;10.40;;;9.50;;
24435;SDS011;12616;52.470;13.436;2023-04-15T13:33:10;10.60;;;9.60;;
24435;SDS011;12616;52.470;13.436;2023-04-15T13:35:38;11.00;;;9.90;;
24435;SDS011;12616;52.470;13.436;2023-04-15T13:38:05;13.23;;;10.07;;
24435;SDS011;12616;52.470;13.436;2023-04-15T13:40:32;11.00;;;9.90;;
24435;SDS011;12616;52.470;13.436;2023-04-15T13:42:59;11.10;;;10.10;;
24435;SDS011;12616;52.470;13.436;2023-04-15T13:45:29;13.63;;;12.23;;
24435;SDS011;12616;52.470;13.436;2023-04-15T13:47:57;11.43;;;10.33;;
24435;SDS011;12616;52.470;13.436;2023-04-15T13:50:24;9.83;;;8.93;;
24435;SDS011;12616;52.470;13.436;2023-04-15T13:52:52;9.80;;;8.90;;
24435;SDS011;12616;52.470;13.436;2023-04-15T13:55:19;10.27;;;9.30;;
24435;SDS011;12616;52.470;13.436;2023-04-15T13:57:46;9.27;;;8.50;;
24435;SDS011;12616;52.470;13.436;2023-04-15T14:00:14;10.23;;;8.90;;
24435;SDS011;12616;52.470;13.436;2023-04-15T14:02:44;9.80;;;8.97;;
24435;SDS011;12616;52.470;13.436;2023-04-15T14:05:11;9.50;;;8.70;;
24435;SDS011;12616;52.470;13.436;2023-04-15T14:07:44;9.37;;;8.40;;
24435;SDS011;12616;52.470;13.436;2023-04-15T14:10:16;8.60;;;7.80;;
24435;SDS011;12616;52.470;13.436;2023-04-15T14:12:48;10.37;;;9.30;;
24435;SDS011;12616;52.470;13.436;2023-04-15T14:15:19;10.30;;;8.90;;
24435;SDS011;12616;52.470;13.436;2023-04-15T14:17:47;10.73;;;9.73;;
24435;SDS011;12616;52.470;13.436;2023-04-15T14:20:22;11.80;;;10.60;;
24435;SDS011;12616;52.470;13.436;2023-04-15T14:22:52;10.27;;;9.37;;
24435;SDS011;12616;52.470;13.436;2023-04-15T14:25:25;10.73;;;9.83;;
24435;SDS011;12616;52.470;13.436;2023-04-15T14:28:10;9.90;;;8.97;;